createdAt,value
2023-05-14T00:01:35.993Z,96584.47
2023-05-14T00:04:04.965Z,96581.03
2023-05-14T00:06:33.005Z,96581.84
2023-05-14T00:09:26.307Z,96580.78
2023-05-14T00:11:54.356Z,96578.81
2023-05-14T00:14:22.357Z,96574.91
2023-05-14T00:16:50.533Z,96570.22
2023-05-14T00:19:19.083Z,96572.03
2023-05-14T00:21:47.892Z,96572.03
2023-05-14T00:24:17.236Z,96567.56
2023-05-14T00:26:45.280Z,96563.09
2023-05-14T00:29:13.478Z,96568.38
2023-05-14T00:31:41.623Z,96555.16
2023-05-14T00:34:09.736Z,96555.84
2023-05-14T00:36:38.016Z,96553.19
2023-05-14T00:39:06.027Z,96546.53
2023-05-14T00:41:35.778Z,96545.94
2023-05-14T00:44:03.910Z,96550.53
2023-05-14T00:46:32.483Z,96551.22
2023-05-14T00:49:01.181Z,96541.91
2023-05-14T00:51:29.256Z,96542.25
2023-05-14T00:53:57.436Z,96535.22
2023-05-14T00:56:26.666Z,96535.69
2023-05-14T00:58:56.153Z,96533.84
2023-05-14T01:01:24.469Z,96529.81
2023-05-14T01:03:53.454Z,96523.56
2023-05-14T01:06:29.845Z,96523.00
2023-05-14T01:09:06.943Z,96521.50
2023-05-14T01:11:41.263Z,96523.56
2023-05-14T01:14:21.464Z,96526.88
2023-05-14T01:16:51.908Z,96522.47
2023-05-14T01:19:28.432Z,96522.91
2023-05-14T01:21:59.194Z,96519.00
2023-05-14T01:24:27.537Z,96514.25
2023-05-14T01:30:05.825Z,96513.94
2023-05-14T01:32:42.835Z,96514.63
2023-05-14T01:35:40.332Z,96509.91
2023-05-14T01:38:13.751Z,96517.75
2023-05-14T01:40:45.347Z,96511.59
2023-05-14T01:43:44.324Z,96520.09
2023-05-14T01:46:12.602Z,96519.88
2023-05-14T01:48:41.394Z,96525.53
2023-05-14T01:51:09.812Z,96526.09
2023-05-14T01:53:39.157Z,96524.63
2023-05-14T01:56:07.911Z,96527.25
2023-05-14T01:58:36.033Z,96527.47
2023-05-14T02:01:04.117Z,96521.84
2023-05-14T02:03:32.143Z,96524.72
2023-05-14T02:06:00.346Z,96525.53
2023-05-14T02:08:28.908Z,96516.88
2023-05-14T02:10:58.314Z,96522.19
2023-05-14T02:13:27.436Z,96516.06
2023-05-14T02:15:55.450Z,96513.72
2023-05-14T02:18:23.474Z,96508.66
2023-05-14T02:20:51.462Z,96512.34
2023-05-14T02:23:25.657Z,96518.66
2023-05-14T02:26:00.620Z,96519.09
2023-05-14T02:28:28.659Z,96516.47
2023-05-14T02:31:00.389Z,96516.69
2023-05-14T02:33:29.247Z,96510.47
2023-05-14T02:35:57.244Z,96507.25
2023-05-14T02:38:27.374Z,96508.03
2023-05-14T02:40:57.770Z,96514.13
2023-05-14T02:43:27.127Z,96508.03
2023-05-14T02:45:55.179Z,96509.66
2023-05-14T02:48:23.227Z,96512.66
2023-05-14T02:50:52.066Z,96516.34
2023-05-14T02:53:20.293Z,96513.25
2023-05-14T02:55:48.321Z,96509.19
2023-05-14T02:58:48.413Z,96510.00
2023-05-14T03:01:18.667Z,96519.06
2023-05-14T03:03:47.346Z,96510.84
2023-05-14T03:06:16.055Z,96516.13
2023-05-14T03:08:44.199Z,96513.28
2023-05-14T03:11:13.774Z,96515.84
2023-05-14T03:13:41.802Z,96519.38
2023-05-14T03:16:11.373Z,96514.75
2023-05-14T03:18:39.498Z,96513.16
2023-05-14T03:21:09.996Z,96518.66
2023-05-14T03:23:38.098Z,96516.66
2023-05-14T03:26:06.319Z,96511.25
2023-05-14T03:28:34.361Z,96514.06
2023-05-14T03:31:02.557Z,96510.69
2023-05-14T03:33:33.033Z,96520.06
2023-05-14T03:36:01.114Z,96518.59
2023-05-14T03:38:29.067Z,96516.78
2023-05-14T03:40:59.075Z,96513.94
2023-05-14T03:43:27.481Z,96520.66
2023-05-14T03:45:56.119Z,96508.63
2023-05-14T03:48:24.429Z,96512.00
2023-05-14T03:50:53.926Z,96509.00
2023-05-14T03:53:21.998Z,96506.72
2023-05-14T03:55:50.136Z,96509.09
2023-05-14T03:58:18.812Z,96514.88
2023-05-14T04:00:46.957Z,96510.13
2023-05-14T04:03:15.585Z,96512.75
2023-05-14T04:05:43.778Z,96514.41
2023-05-14T04:08:13.333Z,96499.69
2023-05-14T04:10:41.456Z,96505.13
2023-05-14T04:13:09.539Z,96501.31
2023-05-14T04:15:40.112Z,96504.69
2023-05-14T04:18:09.142Z,96511.50
2023-05-14T04:20:37.773Z,96513.09
2023-05-14T04:23:05.815Z,96507.97
2023-05-14T04:25:35.253Z,96511.50
2023-05-14T04:28:32.412Z,96505.19
2023-05-14T04:31:00.514Z,96507.75
2023-05-14T04:33:28.540Z,96508.78
2023-05-14T04:35:56.540Z,96509.66
2023-05-14T04:38:24.588Z,96517.06
2023-05-14T04:40:53.936Z,96518.88
2023-05-14T04:43:22.058Z,96514.94
2023-05-14T04:45:50.090Z,96512.00
2023-05-14T04:48:18.119Z,96506.50
2023-05-14T04:50:46.257Z,96507.75
2023-05-14T04:53:14.305Z,96510.06
2023-05-14T04:55:42.334Z,96510.41
2023-05-14T04:58:11.761Z,96501.84
2023-05-14T05:00:40.058Z,96509.88
2023-05-14T05:03:08.695Z,96513.09
2023-05-14T05:05:36.824Z,96513.47
2023-05-14T05:08:05.516Z,96508.53
2023-05-14T05:10:33.628Z,96507.50
2023-05-14T05:13:02.103Z,96509.66
2023-05-14T05:15:31.447Z,96504.16
2023-05-14T05:17:59.529Z,96513.19
2023-05-14T05:20:28.241Z,96508.81
2023-05-14T05:22:57.034Z,96511.31
2023-05-14T05:25:25.199Z,96509.16
2023-05-14T05:27:53.272Z,96508.34
2023-05-14T05:30:21.486Z,96505.06
2023-05-14T05:32:51.131Z,96505.78
2023-05-14T05:35:19.423Z,96503.78
2023-05-14T05:37:47.409Z,96504.38
2023-05-14T05:40:15.758Z,96500.41
2023-05-14T05:42:43.940Z,96503.97
2023-05-14T05:45:12.557Z,96505.72
2023-05-14T05:47:40.817Z,96508.81
2023-05-14T05:50:12.173Z,96502.91
2023-05-14T05:52:40.505Z,96507.66
2023-05-14T05:55:09.791Z,96497.53
2023-05-14T05:57:37.776Z,96499.56
2023-05-14T06:00:13.171Z,96504.41
2023-05-14T06:02:42.796Z,96508.44
2023-05-14T06:05:12.633Z,96500.28
2023-05-14T06:07:40.865Z,96510.63
2023-05-14T06:10:09.935Z,96515.97
2023-05-14T06:12:37.966Z,96508.88
2023-05-14T06:15:07.516Z,96506.88
2023-05-14T06:17:35.637Z,96510.47
2023-05-14T06:20:05.502Z,96519.78
2023-05-14T06:22:35.018Z,96509.81
2023-05-14T06:25:05.534Z,96513.94
2023-05-14T06:27:36.203Z,96513.25
2023-05-14T06:30:04.699Z,96521.19
2023-05-14T06:32:32.772Z,96517.50
2023-05-14T06:35:00.878Z,96522.09
2023-05-14T06:37:31.182Z,96521.44
2023-05-14T06:40:05.634Z,96523.81
2023-05-14T06:42:33.956Z,96514.63
2023-05-14T06:45:02.128Z,96520.25
2023-05-14T06:47:30.185Z,96521.34
2023-05-14T06:49:58.630Z,96508.63
2023-05-14T06:52:27.037Z,96510.34
2023-05-14T06:54:55.173Z,96523.72
2023-05-14T06:57:24.525Z,96515.59
2023-05-14T06:59:52.557Z,96513.66
2023-05-14T07:02:20.858Z,96511.56
2023-05-14T07:04:48.986Z,96510.31
2023-05-14T07:07:20.555Z,96502.97
2023-05-14T07:09:48.733Z,96505.59
2023-05-14T07:12:16.716Z,96502.47
2023-05-14T07:14:46.748Z,96509.75
2023-05-14T07:17:16.156Z,96502.28
2023-05-14T07:19:44.208Z,96499.97
2023-05-14T07:22:13.822Z,96505.19
2023-05-14T07:24:41.860Z,96504.47
2023-05-14T07:27:10.000Z,96508.03
2023-05-14T07:29:38.046Z,96501.47
2023-05-14T07:32:07.596Z,96498.25
2023-05-14T07:34:35.742Z,96490.78
2023-05-14T07:37:04.173Z,96491.00
2023-05-14T07:39:32.257Z,96491.47
2023-05-14T07:42:01.323Z,96490.19
2023-05-14T07:44:29.383Z,96490.19
2023-05-14T07:46:57.377Z,96490.19
2023-05-14T07:49:26.914Z,96485.25
2023-05-14T07:51:54.895Z,96491.09
2023-05-14T07:54:22.893Z,96491.81
2023-05-14T07:56:50.930Z,96493.53
2023-05-14T07:59:18.925Z,96482.94
2023-05-14T08:01:46.975Z,96490.53
2023-05-14T08:04:16.196Z,96491.22
2023-05-14T08:06:45.673Z,96488.47
2023-05-14T08:09:13.906Z,96490.09
2023-05-14T08:11:41.988Z,96486.41
2023-05-14T08:14:09.992Z,96490.09
2023-05-14T08:16:38.574Z,96487.78
2023-05-14T08:19:06.938Z,96495.63
2023-05-14T08:21:35.010Z,96488.47
2023-05-14T08:24:05.173Z,96486.75
2023-05-14T08:26:33.234Z,96490.28
2023-05-14T08:29:01.200Z,96484.88
2023-05-14T08:31:29.284Z,96485.84
2023-05-14T08:33:57.624Z,96484.06
2023-05-14T08:36:25.647Z,96478.91
2023-05-14T08:38:53.751Z,96475.78
2023-05-14T08:41:23.306Z,96477.72
2023-05-14T08:44:05.055Z,96477.16
2023-05-14T08:46:33.890Z,96475.38
2023-05-14T08:49:12.337Z,96474.47
2023-05-14T08:51:40.724Z,96473.56
2023-05-14T08:54:09.061Z,96466.00
2023-05-14T08:56:39.772Z,96459.31
2023-05-14T08:59:07.783Z,96468.53
2023-05-14T09:01:39.451Z,96467.38
2023-05-14T09:04:08.569Z,96464.47
2023-05-14T09:06:38.437Z,96458.22
2023-05-14T09:09:06.897Z,96456.09
2023-05-14T09:11:34.969Z,96459.69
2023-05-14T09:14:04.652Z,96451.59
2023-05-14T09:16:32.800Z,96456.84
2023-05-14T09:19:00.926Z,96452.22
2023-05-14T09:21:32.212Z,96442.88
2023-05-14T09:24:01.967Z,96449.91
2023-05-14T09:26:34.831Z,96445.06
2023-05-14T09:29:05.070Z,96447.84
2023-05-14T09:31:34.554Z,96438.41
2023-05-14T09:34:02.561Z,96449.75
2023-05-14T09:36:31.573Z,96448.06
2023-05-14T09:38:59.601Z,96441.84
2023-05-14T09:41:27.644Z,96443.88
2023-05-14T09:43:56.830Z,96441.25
2023-05-14T09:46:30.164Z,96440.06
2023-05-14T09:48:58.744Z,96443.34
2023-05-14T09:51:26.769Z,96443.19
2023-05-14T09:53:56.156Z,96428.13
2023-05-14T09:56:24.214Z,96433.59
2023-05-14T09:58:54.967Z,96430.72
2023-05-14T10:01:26.828Z,96428.03
2023-05-14T10:03:55.861Z,96428.03
2023-05-14T10:06:28.470Z,96426.78
2023-05-14T10:09:00.167Z,96431.38
2023-05-14T10:11:34.405Z,96437.47
2023-05-14T10:14:08.562Z,96432.69
2023-05-14T10:16:48.861Z,96434.63
2023-05-14T10:19:18.730Z,96431.03
2023-05-14T10:21:50.327Z,96429.63
2023-05-14T10:24:19.695Z,96434.28
2023-05-14T10:26:48.512Z,96417.72
2023-05-14T10:29:16.528Z,96423.38
2023-05-14T10:31:51.603Z,96428.94
2023-05-14T10:34:34.578Z,96424.25
2023-05-14T10:37:03.467Z,96432.94
2023-05-14T10:39:46.399Z,96429.16
2023-05-14T10:42:17.928Z,96425.03
2023-05-14T10:44:55.470Z,96419.47
2023-05-14T10:47:25.441Z,96417.28
2023-05-14T10:49:56.853Z,96422.22
2023-05-14T10:52:25.984Z,96403.34
2023-05-14T10:54:56.829Z,96403.72
2023-05-14T10:57:28.100Z,96399.19
2023-05-14T10:59:58.922Z,96396.88
2023-05-14T11:02:29.972Z,96400.16
2023-05-14T11:05:03.533Z,96392.22
2023-05-14T11:07:33.878Z,96394.47
2023-05-14T11:10:05.932Z,96400.53
2023-05-14T11:12:35.357Z,96388.41
2023-05-14T11:15:06.763Z,96391.72
2023-05-14T11:17:37.403Z,96378.13
2023-05-14T11:20:08.060Z,96378.28
2023-05-14T11:22:37.357Z,96385.25
2023-05-14T11:25:07.259Z,96376.97
2023-05-14T11:27:36.661Z,96383.13
2023-05-14T11:30:06.572Z,96382.66
2023-05-14T11:32:36.611Z,96375.53
2023-05-14T11:35:05.887Z,96370.38
2023-05-14T11:37:33.945Z,96377.84
2023-05-14T11:40:02.892Z,96382.88
2023-05-14T11:42:30.924Z,96376.47
2023-05-14T11:44:59.052Z,96373.66
2023-05-14T11:47:27.074Z,96371.44
2023-05-14T11:49:56.477Z,96374.56
2023-05-14T11:52:24.488Z,96367.25
2023-05-14T11:54:52.475Z,96359.28
2023-05-14T11:57:22.582Z,96358.78
2023-05-14T11:59:57.063Z,96355.00
2023-05-14T12:02:27.776Z,96352.03
2023-05-14T12:04:58.310Z,96356.63
2023-05-14T12:07:31.115Z,96356.13
2023-05-14T12:10:04.011Z,96352.25
2023-05-14T12:12:37.264Z,96354.81
2023-05-14T12:15:13.152Z,96349.66
2023-05-14T12:17:41.469Z,96340.34
2023-05-14T12:20:12.998Z,96342.34
2023-05-14T12:22:43.227Z,96337.97
2023-05-14T12:25:17.196Z,96336.09
2023-05-14T12:27:46.357Z,96333.28
2023-05-14T12:32:46.758Z,96336.81
2023-05-14T12:35:16.364Z,96333.03
2023-05-14T12:37:44.365Z,96327.03
2023-05-14T12:40:13.414Z,96325.16
2023-05-14T12:42:41.529Z,96323.50
2023-05-14T12:45:10.256Z,96314.94
2023-05-14T12:47:38.548Z,96321.88
2023-05-14T12:50:08.414Z,96324.28
2023-05-14T12:52:39.763Z,96319.19
2023-05-14T12:55:09.936Z,96313.78
2023-05-14T12:57:39.275Z,96315.78
2023-05-14T13:00:32.439Z,96314.03
2023-05-14T13:03:24.720Z,96317.34
2023-05-14T13:13:21.853Z,96306.66
2023-05-14T13:17:04.846Z,96300.53
2023-05-14T13:24:34.661Z,96296.16
2023-05-14T13:27:09.324Z,96287.84
2023-05-14T13:29:37.883Z,96301.41
2023-05-14T13:32:08.273Z,96299.28
2023-05-14T13:34:36.500Z,96293.50
2023-05-14T13:37:04.817Z,96293.09
2023-05-14T13:39:32.942Z,96290.84
2023-05-14T13:42:01.301Z,96278.38
2023-05-14T13:44:30.766Z,96286.50
2023-05-14T13:46:58.953Z,96273.69
2023-05-14T13:49:27.027Z,96275.22
2023-05-14T13:51:54.983Z,96275.59
2023-05-14T13:54:23.928Z,96266.84
2023-05-14T13:56:52.009Z,96263.34
2023-05-14T13:59:20.435Z,96270.38
2023-05-14T14:01:51.474Z,96264.81
2023-05-14T14:04:20.920Z,96265.69
2023-05-14T14:06:48.978Z,96263.41
2023-05-14T14:09:17.020Z,96256.75
2023-05-14T14:11:45.059Z,96259.50
2023-05-14T14:14:13.070Z,96250.44
2023-05-14T14:17:11.569Z,96247.84
2023-05-14T14:19:39.538Z,96241.94
2023-05-14T14:22:08.808Z,96239.13
2023-05-14T14:24:36.829Z,96252.78
2023-05-14T14:27:07.635Z,96248.53
2023-05-14T14:29:36.702Z,96256.09
2023-05-14T14:32:06.155Z,96251.16
2023-05-14T14:34:35.772Z,96250.25
2023-05-14T14:37:03.775Z,96251.31
2023-05-14T14:39:31.777Z,96251.69
2023-05-14T14:41:59.823Z,96254.59
2023-05-14T14:44:27.841Z,96247.66
2023-05-14T14:46:55.842Z,96242.25
2023-05-14T14:49:24.392Z,96240.63
2023-05-14T14:51:53.763Z,96241.94
2023-05-14T14:54:21.757Z,96242.25
2023-05-14T14:56:53.071Z,96241.72
2023-05-14T14:59:21.085Z,96250.78
2023-05-14T15:01:49.529Z,96246.84
2023-05-14T15:04:17.721Z,96247.94
2023-05-14T15:06:45.768Z,96239.50
2023-05-14T15:09:15.170Z,96241.94
2023-05-14T15:11:43.256Z,96241.78
2023-05-14T15:14:11.711Z,96237.84
2023-05-14T15:16:39.786Z,96232.50
2023-05-14T15:19:07.879Z,96239.19
2023-05-14T15:21:36.430Z,96237.81
2023-05-14T15:24:05.405Z,96241.25
2023-05-14T15:26:37.467Z,96231.03
2023-05-14T15:29:05.677Z,96241.31
2023-05-14T15:31:34.128Z,96229.94
2023-05-14T15:34:03.602Z,96234.03
2023-05-14T15:36:32.154Z,96223.44
2023-05-14T15:39:00.673Z,96227.06
2023-05-14T15:41:34.390Z,96230.81
2023-05-14T15:44:03.830Z,96231.22
2023-05-14T15:46:32.152Z,96233.25
2023-05-14T15:49:00.253Z,96224.88
2023-05-14T15:51:53.421Z,96230.22
2023-05-14T15:54:21.611Z,96220.66
2023-05-14T15:56:49.650Z,96220.44
2023-05-14T15:59:20.273Z,96223.66
2023-05-14T16:01:50.071Z,96224.94
2023-05-14T16:04:18.132Z,96212.59
2023-05-14T16:06:46.237Z,96221.16
2023-05-14T16:09:14.960Z,96221.50
2023-05-14T16:11:43.162Z,96212.75
2023-05-14T16:14:11.709Z,96219.06
2023-05-14T16:16:41.143Z,96221.16
2023-05-14T16:19:09.574Z,96214.84
2023-05-14T16:21:37.814Z,96220.16
2023-05-14T16:24:06.982Z,96220.72
2023-05-14T16:26:35.177Z,96214.91
2023-05-14T16:29:03.440Z,96217.56
2023-05-14T16:31:32.059Z,96208.00
2023-05-14T16:34:01.539Z,96211.75
2023-05-14T16:36:29.698Z,96207.00
2023-05-14T16:39:07.299Z,96218.97
2023-05-14T16:41:37.493Z,96223.88
2023-05-14T16:44:05.921Z,96214.03
2023-05-14T16:46:34.593Z,96222.00
2023-05-14T16:49:04.071Z,96227.03
2023-05-14T16:51:32.804Z,96230.72
2023-05-14T16:54:01.643Z,96221.41
2023-05-14T16:56:30.287Z,96224.06
2023-05-14T16:58:58.360Z,96221.13
2023-05-14T17:01:27.413Z,96215.53
2023-05-14T17:03:56.108Z,96217.84
2023-05-14T17:06:25.719Z,96227.28
2023-05-14T17:08:53.775Z,96214.19
2023-05-14T17:11:21.815Z,96214.66
2023-05-14T17:13:50.121Z,96216.47
2023-05-14T17:16:18.327Z,96215.84
2023-05-14T17:18:46.941Z,96211.00
2023-05-14T17:21:15.225Z,96219.31
2023-05-14T17:23:44.581Z,96224.66
2023-05-14T17:26:15.255Z,96221.94
2023-05-14T17:28:43.280Z,96230.47
2023-05-14T17:31:11.487Z,96224.03
2023-05-14T17:33:39.556Z,96224.63
2023-05-14T17:36:32.773Z,96227.53
2023-05-14T17:39:02.387Z,96232.19
2023-05-14T17:41:30.522Z,96235.16
2023-05-14T17:43:58.562Z,96232.97
2023-05-14T17:46:26.883Z,96228.81
2023-05-14T17:48:54.906Z,96231.28
2023-05-14T17:51:22.906Z,96236.72
2023-05-14T17:53:50.988Z,96240.00
2023-05-14T17:56:20.940Z,96231.50
2023-05-14T17:58:50.037Z,96236.34
2023-05-14T18:01:18.318Z,96234.78
2023-05-14T18:03:46.513Z,96232.13
2023-05-14T18:06:15.013Z,96234.81
2023-05-14T18:08:43.075Z,96240.09
2023-05-14T18:11:11.268Z,96235.78
2023-05-14T18:13:40.639Z,96237.94
2023-05-14T18:16:09.185Z,96237.44
2023-05-14T18:18:37.319Z,96241.69
2023-05-14T18:21:05.553Z,96241.69
2023-05-14T18:23:33.605Z,96236.63
2023-05-14T18:26:02.304Z,96239.78
2023-05-14T18:28:31.484Z,96243.22
2023-05-14T18:31:00.952Z,96243.47
2023-05-14T18:33:29.379Z,96245.53
2023-05-14T18:35:58.520Z,96244.44
2023-05-14T18:38:26.824Z,96246.25
2023-05-14T18:40:54.873Z,96251.28
2023-05-14T18:43:22.881Z,96249.38
2023-05-14T18:45:50.909Z,96252.53
2023-05-14T18:48:20.382Z,96241.84
2023-05-14T18:50:48.447Z,96242.84
2023-05-14T18:53:16.461Z,96251.31
2023-05-14T18:55:44.604Z,96245.41
2023-05-14T18:58:14.386Z,96245.88
2023-05-14T19:00:42.508Z,96249.81
2023-05-14T19:03:10.758Z,96252.16
2023-05-14T19:05:40.545Z,96256.63
2023-05-14T19:08:09.419Z,96254.94
2023-05-14T19:10:38.337Z,96254.66
2023-05-14T19:13:06.482Z,96258.84
2023-05-14T19:15:34.850Z,96263.53
2023-05-14T19:18:04.160Z,96266.41
2023-05-14T19:20:32.325Z,96263.59
2023-05-14T19:23:01.783Z,96270.44
2023-05-14T19:25:30.559Z,96275.47
2023-05-14T19:28:01.528Z,96281.81
2023-05-14T19:30:29.631Z,96273.00
2023-05-14T19:32:58.443Z,96273.72
2023-05-14T19:35:26.729Z,96272.59
2023-05-14T19:37:54.858Z,96275.75
2023-05-14T19:40:24.591Z,96275.09
2023-05-14T19:42:53.044Z,96279.28
2023-05-14T19:45:21.133Z,96287.47
2023-05-14T19:47:49.336Z,96288.75
2023-05-14T19:50:17.659Z,96290.84
2023-05-14T19:52:45.895Z,96285.72
2023-05-14T19:55:14.068Z,96288.84
2023-05-14T19:57:43.616Z,96290.38
2023-05-14T20:00:14.373Z,96291.09
2023-05-14T20:02:43.271Z,96292.31
2023-05-14T20:05:15.924Z,96287.19
2023-05-14T20:07:44.818Z,96292.44
2023-05-14T20:10:12.852Z,96289.78
2023-05-14T20:12:41.278Z,96282.72
2023-05-14T20:15:11.899Z,96290.00
2023-05-14T20:17:40.272Z,96288.81
2023-05-14T20:20:10.055Z,96279.00
2023-05-14T20:22:38.556Z,96282.94
2023-05-14T20:25:08.028Z,96283.31
2023-05-14T20:27:36.244Z,96287.19
2023-05-14T20:30:04.789Z,96282.03
2023-05-14T20:32:34.496Z,96275.25
2023-05-14T20:35:02.835Z,96278.34
2023-05-14T20:37:32.510Z,96279.63
2023-05-14T20:40:02.326Z,96271.38
2023-05-14T20:42:30.445Z,96272.66
2023-05-14T20:44:58.631Z,96274.97
2023-05-14T20:47:30.369Z,96263.00
2023-05-14T20:49:59.894Z,96268.00
2023-05-14T20:52:28.196Z,96266.63
2023-05-14T20:54:56.197Z,96260.75
2023-05-14T20:57:24.424Z,96262.25
2023-05-14T20:59:52.618Z,96264.50
2023-05-14T21:02:20.893Z,96261.59
2023-05-14T21:04:49.222Z,96257.81
2023-05-14T21:07:18.570Z,96265.06
2023-05-14T21:09:52.102Z,96263.38
2023-05-14T21:12:20.256Z,96264.16
2023-05-14T21:14:48.383Z,96270.03
2023-05-14T21:17:16.489Z,96277.28
2023-05-14T21:19:44.673Z,96277.19
2023-05-14T21:22:13.730Z,96276.28
2023-05-14T21:24:43.179Z,96278.56
2023-05-14T21:27:11.274Z,96274.78
2023-05-14T21:29:39.603Z,96267.34
2023-05-14T21:32:08.691Z,96271.00
2023-05-14T21:34:36.999Z,96268.84
2023-05-14T21:37:05.223Z,96273.56
2023-05-14T21:39:33.292Z,96272.50
2023-05-14T21:42:02.689Z,96272.75
2023-05-14T21:44:30.689Z,96259.44
2023-05-14T21:46:59.383Z,96263.81
2023-05-14T21:49:27.520Z,96261.66
2023-05-14T21:51:55.647Z,96258.44
2023-05-14T21:54:23.689Z,96254.19
2023-05-14T21:56:51.876Z,96260.03
2023-05-14T21:59:21.435Z,96256.81
2023-05-14T22:04:20.856Z,96258.47
2023-05-14T22:06:49.135Z,96253.41
2023-05-14T22:09:17.204Z,96257.88
2023-05-14T22:11:45.198Z,96258.47
2023-05-14T22:14:13.851Z,96247.06
2023-05-14T22:16:43.495Z,96251.69
2023-05-14T22:19:11.868Z,96254.31
2023-05-14T22:21:39.999Z,96255.69
2023-05-14T22:24:08.543Z,96254.91
2023-05-14T22:26:36.653Z,96248.56
2023-05-14T22:29:04.825Z,96240.66
2023-05-14T22:31:32.946Z,96240.19
2023-05-14T22:34:02.343Z,96241.34
2023-05-14T22:36:30.536Z,96243.16
2023-05-14T22:38:58.568Z,96236.75
2023-05-14T22:41:26.690Z,96241.69
2023-05-14T22:43:54.845Z,96239.50
2023-05-14T22:46:22.968Z,96235.69
2023-05-14T22:48:51.052Z,96232.81
2023-05-14T22:51:20.454Z,96229.41
2023-05-14T22:53:48.573Z,96234.09
2023-05-14T22:56:17.868Z,96230.63
2023-05-14T22:58:45.819Z,96226.97
2023-05-14T23:01:13.891Z,96231.44
2023-05-14T23:03:42.063Z,96225.34
2023-05-14T23:06:10.032Z,96227.22
2023-05-14T23:08:39.347Z,96226.97
2023-05-14T23:11:07.602Z,96227.13
2023-05-14T23:13:35.655Z,96220.88
2023-05-14T23:16:05.934Z,96216.78
2023-05-14T23:18:35.221Z,96214.56
2023-05-14T23:21:03.472Z,96212.38
2023-05-14T23:23:31.462Z,96220.31
2023-05-14T23:26:01.064Z,96226.03
2023-05-14T23:28:29.078Z,96225.94
2023-05-14T23:30:57.081Z,96223.06
2023-05-14T23:33:25.190Z,96220.09
2023-05-14T23:35:53.339Z,96225.47
2023-05-14T23:38:21.710Z,96221.69
2023-05-14T23:40:50.131Z,96222.47
2023-05-14T23:43:19.504Z,96215.16
2023-05-14T23:45:47.599Z,96210.00
2023-05-14T23:48:15.675Z,96208.63
2023-05-14T23:50:43.898Z,96213.91
2023-05-14T23:53:11.939Z,96200.81
2023-05-14T23:55:40.033Z,96199.19
2023-05-14T23:58:34.468Z,96194.03
